createdAt,value
2022-08-28T00:01:40.306Z,71.25
2022-08-28T00:06:43.313Z,71.36
2022-08-28T00:11:47.414Z,71.71
2022-08-28T00:16:52.606Z,71.52
2022-08-28T00:21:55.633Z,71.63
2022-08-28T00:27:17.137Z,71.35
2022-08-28T00:32:25.447Z,71.50
2022-08-28T00:37:29.426Z,71.61
2022-08-28T00:42:36.486Z,71.99
2022-08-28T00:47:40.308Z,72.29
2022-08-28T00:52:50.774Z,72.07
2022-08-28T00:58:00.653Z,72.10
2022-08-28T01:03:06.823Z,72.32
2022-08-28T01:08:10.029Z,72.18
2022-08-28T01:13:16.533Z,71.89
2022-08-28T01:18:22.188Z,71.75
2022-08-28T01:23:55.602Z,71.86
2022-08-28T01:29:00.897Z,71.94
2022-08-28T01:34:05.619Z,72.39
2022-08-28T01:39:15.342Z,72.58
2022-08-28T01:44:24.913Z,72.39
2022-08-28T01:49:29.563Z,72.14
2022-08-28T01:54:32.576Z,72.46
2022-08-28T01:59:36.393Z,72.13
2022-08-28T02:04:39.519Z,71.96
2022-08-28T02:09:43.070Z,71.65
2022-08-28T02:14:46.362Z,71.50
2022-08-28T02:19:49.460Z,71.27
2022-08-28T02:24:52.935Z,71.70
2022-08-28T02:29:56.015Z,71.61
2022-08-28T02:34:59.110Z,71.75
2022-08-28T02:40:03.764Z,71.69
2022-08-28T02:45:10.910Z,71.82
2022-08-28T02:50:19.031Z,72.32
2022-08-28T02:55:22.947Z,72.74
2022-08-28T03:00:26.859Z,72.64
2022-08-28T03:05:29.870Z,72.86
2022-08-28T03:10:32.955Z,72.69
2022-08-28T03:15:36.000Z,72.86
2022-08-28T03:20:40.176Z,72.88
2022-08-28T03:25:43.227Z,72.62
2022-08-28T03:30:46.484Z,72.85
2022-08-28T03:35:50.599Z,72.98
2022-08-28T03:40:54.758Z,73.68
2022-08-28T03:46:04.252Z,73.81
2022-08-28T03:51:10.745Z,73.48
2022-08-28T03:56:22.137Z,73.16
2022-08-28T04:01:26.077Z,73.01
2022-08-28T04:06:30.295Z,72.72
2022-08-28T04:11:44.378Z,72.58
2022-08-28T04:16:48.728Z,72.55
2022-08-28T04:21:52.374Z,72.50
2022-08-28T04:26:55.454Z,73.17
2022-08-28T04:31:58.819Z,73.32
2022-08-28T04:37:01.867Z,73.04
2022-08-28T04:42:05.230Z,72.57
2022-08-28T04:47:08.391Z,72.25
2022-08-28T04:52:11.957Z,72.18
2022-08-28T04:57:15.112Z,72.63
2022-08-28T05:02:18.211Z,72.56
2022-08-28T05:07:21.407Z,72.04
2022-08-28T05:12:25.104Z,71.75
2022-08-28T05:17:29.330Z,71.61
2022-08-28T05:22:35.670Z,71.19
2022-08-28T05:27:40.460Z,70.97
2022-08-28T05:32:43.526Z,70.33
2022-08-28T05:37:46.717Z,69.66
2022-08-28T05:42:50.883Z,69.06
2022-08-28T05:47:54.220Z,69.42
2022-08-28T05:52:58.207Z,67.90
2022-08-28T05:58:21.218Z,66.73
2022-08-28T06:03:24.963Z,66.46
2022-08-28T06:08:28.942Z,66.26
2022-08-28T06:13:32.768Z,65.29
2022-08-28T06:18:37.580Z,65.43
2022-08-28T06:23:41.405Z,65.35
2022-08-28T06:28:44.454Z,64.56
2022-08-28T06:33:47.475Z,64.24
2022-08-28T06:38:51.191Z,63.57
2022-08-28T06:43:56.186Z,62.99
2022-08-28T06:48:59.223Z,63.03
2022-08-28T06:54:03.903Z,62.28
2022-08-28T06:59:06.988Z,61.79
2022-08-28T07:04:12.573Z,61.69
2022-08-28T07:09:15.789Z,61.88
2022-08-28T07:14:19.132Z,62.03
2022-08-28T07:19:22.163Z,61.17
2022-08-28T07:24:26.656Z,60.97
2022-08-28T07:29:29.739Z,60.61
2022-08-28T07:34:32.830Z,59.77
2022-08-28T07:39:35.917Z,60.05
2022-08-28T07:44:51.018Z,59.62
2022-08-28T07:49:54.014Z,59.33
2022-08-28T07:54:57.553Z,58.65
2022-08-28T08:00:00.710Z,58.75
2022-08-28T08:05:05.498Z,58.22
2022-08-28T08:10:15.094Z,57.44
2022-08-28T08:15:23.715Z,56.83
2022-08-28T08:20:27.735Z,55.91
2022-08-28T08:25:30.904Z,55.33
2022-08-28T08:30:36.749Z,54.95
2022-08-28T08:35:40.176Z,54.59
2022-08-28T08:40:43.344Z,53.79
2022-08-28T08:45:49.718Z,53.61
2022-08-28T08:50:54.278Z,53.06
2022-08-28T08:55:58.473Z,52.11
2022-08-28T09:01:44.933Z,51.38
2022-08-28T09:06:56.728Z,50.78
2022-08-28T09:12:08.038Z,49.85
2022-08-28T09:17:16.662Z,49.60
2022-08-28T09:22:20.314Z,49.26
2022-08-28T09:27:33.409Z,48.32
2022-08-28T09:33:01.030Z,46.92
2022-08-28T09:38:27.538Z,46.71
2022-08-28T09:43:33.720Z,45.40
2022-08-28T09:48:40.286Z,45.65
2022-08-28T09:53:52.333Z,44.79
2022-08-28T09:59:01.444Z,44.01
2022-08-28T10:04:29.180Z,44.47
2022-08-28T10:10:09.551Z,42.29
2022-08-28T10:15:43.472Z,42.60
2022-08-28T10:21:01.627Z,42.60
2022-08-28T10:26:37.441Z,41.87
2022-08-28T10:31:47.421Z,40.98
2022-08-28T10:37:26.491Z,41.41
2022-08-28T10:42:39.736Z,40.38
2022-08-28T10:48:12.646Z,41.11
2022-08-28T10:53:26.714Z,39.57
2022-08-28T10:58:35.991Z,40.20
2022-08-28T11:03:51.678Z,38.67
2022-08-28T11:09:22.566Z,39.56
2022-08-28T11:14:32.658Z,38.07
2022-08-28T11:20:10.396Z,38.69
2022-08-28T11:25:41.924Z,37.15
2022-08-28T11:30:49.965Z,37.26
2022-08-28T11:35:53.102Z,36.88
2022-08-28T11:41:09.803Z,33.40
2022-08-28T11:46:31.658Z,33.51
2022-08-28T11:52:15.838Z,33.07
2022-08-28T11:57:47.323Z,33.97
2022-08-28T12:03:14.815Z,34.31
2022-08-28T12:08:49.099Z,34.17
2022-08-28T12:13:53.166Z,33.11
2022-08-28T12:19:01.390Z,31.86
2022-08-28T12:24:21.013Z,34.24
2022-08-28T12:29:33.514Z,35.63
2022-08-28T12:35:03.758Z,32.28
2022-08-28T12:40:22.074Z,30.39
2022-08-28T12:45:38.070Z,30.19
2022-08-28T12:50:41.270Z,30.51
2022-08-28T12:55:47.209Z,30.66
2022-08-28T13:00:59.366Z,31.21
2022-08-28T13:06:08.250Z,33.72
2022-08-28T13:11:11.373Z,34.17
2022-08-28T13:16:37.344Z,32.43
2022-08-28T13:22:03.468Z,31.08
2022-08-28T13:27:09.049Z,31.69
2022-08-28T13:32:18.220Z,34.33
2022-08-28T13:37:48.230Z,33.12
2022-08-28T13:42:59.240Z,33.08
2022-08-28T13:48:02.679Z,33.19
2022-08-28T13:53:09.448Z,33.76
2022-08-28T13:58:14.112Z,36.07
2022-08-28T14:03:38.571Z,34.37
2022-08-28T14:08:44.295Z,35.67
2022-08-28T14:13:55.808Z,38.03
2022-08-28T14:19:04.896Z,34.88
2022-08-28T14:24:09.051Z,33.84
2022-08-28T14:29:16.058Z,39.13
2022-08-28T14:34:23.662Z,40.15
2022-08-28T14:39:28.158Z,42.67
2022-08-28T14:44:31.321Z,44.16
2022-08-28T14:49:34.427Z,45.74
2022-08-28T14:54:40.643Z,46.24
2022-08-28T14:59:45.468Z,45.93
2022-08-28T15:04:48.916Z,45.85
2022-08-28T15:09:52.229Z,43.33
2022-08-28T15:14:57.157Z,44.17
2022-08-28T15:20:01.225Z,44.61
2022-08-28T15:25:06.095Z,44.69
2022-08-28T15:30:10.249Z,46.23
2022-08-28T15:35:13.324Z,47.59
2022-08-28T15:40:34.877Z,47.10
2022-08-28T15:45:40.281Z,48.76
2022-08-28T15:50:43.993Z,45.22
2022-08-28T15:55:47.018Z,43.76
2022-08-28T16:00:50.311Z,46.92
2022-08-28T16:05:53.558Z,49.88
2022-08-28T16:10:56.826Z,53.59
2022-08-28T16:16:00.021Z,58.03
2022-08-28T16:21:05.237Z,60.47
2022-08-28T16:26:10.469Z,61.57
2022-08-28T16:31:19.262Z,62.49
2022-08-28T16:36:25.398Z,62.98
2022-08-28T16:41:28.598Z,63.12
2022-08-28T16:46:33.322Z,63.74
2022-08-28T16:51:36.548Z,64.68
2022-08-28T16:56:40.259Z,66.01
2022-08-28T17:01:43.482Z,67.06
2022-08-28T17:06:46.774Z,68.85
2022-08-28T17:11:52.144Z,70.29
2022-08-28T17:16:55.402Z,69.86
2022-08-28T17:22:17.316Z,69.31
2022-08-28T17:27:22.599Z,70.49
2022-08-28T17:32:26.573Z,70.57
2022-08-28T17:37:30.040Z,71.08
2022-08-28T17:42:33.096Z,71.17
2022-08-28T17:47:36.807Z,71.66
2022-08-28T17:52:40.741Z,71.90
2022-08-28T17:57:43.754Z,72.21
2022-08-28T18:02:55.149Z,72.38
2022-08-28T18:07:59.913Z,72.90
2022-08-28T18:13:05.860Z,73.86
2022-08-28T18:18:10.964Z,74.38
2022-08-28T18:23:14.455Z,74.59
2022-08-28T18:28:22.532Z,74.47
2022-08-28T18:33:25.803Z,74.64
2022-08-28T18:38:30.036Z,74.83
2022-08-28T18:43:34.578Z,75.07
2022-08-28T18:48:38.376Z,74.47
2022-08-28T18:53:43.913Z,74.14
2022-08-28T18:58:47.974Z,74.38
2022-08-28T19:03:51.172Z,75.25
2022-08-28T19:08:54.287Z,75.58
2022-08-28T19:14:03.540Z,76.40
2022-08-28T19:19:07.668Z,76.56
2022-08-28T19:24:13.638Z,76.76
2022-08-28T19:29:17.296Z,76.70
2022-08-28T19:34:20.726Z,76.71
2022-08-28T19:39:25.437Z,77.32
2022-08-28T19:44:28.751Z,77.25
2022-08-28T19:49:31.914Z,76.75
2022-08-28T19:54:40.973Z,77.21
2022-08-28T19:59:44.989Z,77.04
2022-08-28T20:04:48.224Z,77.25
2022-08-28T20:09:52.224Z,77.40
2022-08-28T20:15:00.064Z,77.38
2022-08-28T20:20:08.678Z,77.92
2022-08-28T20:25:12.302Z,77.02
2022-08-28T20:30:18.246Z,76.55
2022-08-28T20:35:22.043Z,76.63
2022-08-28T20:40:25.751Z,76.68
2022-08-28T20:45:29.365Z,76.50
2022-08-28T20:50:32.347Z,76.67
2022-08-28T20:55:35.387Z,76.94
2022-08-28T21:00:38.798Z,77.26
2022-08-28T21:05:47.612Z,77.72
2022-08-28T21:10:52.973Z,77.91
2022-08-28T21:15:55.997Z,78.00
2022-08-28T21:20:59.132Z,78.06
2022-08-28T21:26:02.395Z,78.11
2022-08-28T21:31:13.834Z,78.37
2022-08-28T21:36:18.944Z,78.42
2022-08-28T21:41:21.973Z,78.54
2022-08-28T21:46:25.570Z,78.68
2022-08-28T21:51:28.927Z,79.29
2022-08-28T21:56:33.043Z,79.63
2022-08-28T22:01:36.195Z,80.32
2022-08-28T22:06:40.654Z,81.58
2022-08-28T22:11:43.689Z,83.11
2022-08-28T22:16:46.948Z,84.06
2022-08-28T22:22:08.685Z,84.10
2022-08-28T22:27:13.645Z,83.95
2022-08-28T22:32:16.989Z,84.32
2022-08-28T22:37:20.194Z,84.65
2022-08-28T22:42:23.365Z,85.65
2022-08-28T22:47:26.456Z,86.17
2022-08-28T22:52:29.578Z,86.74
2022-08-28T22:57:32.805Z,87.02
2022-08-28T23:02:36.197Z,87.17
2022-08-28T23:07:39.630Z,87.07
2022-08-28T23:12:43.642Z,86.89
2022-08-28T23:17:47.668Z,86.44
2022-08-28T23:22:56.403Z,86.25
2022-08-28T23:28:14.614Z,86.11
2022-08-28T23:33:23.815Z,85.72
2022-08-28T23:38:27.759Z,84.84
2022-08-28T23:43:31.685Z,84.24
2022-08-28T23:48:35.230Z,84.12
2022-08-28T23:53:40.988Z,84.28
2022-08-28T23:58:45.530Z,83.62
